Time;durP1;ratioP1;P1;durP2;ratioP2;P2;SDS_P1;SDS_P2;PMS_P1;PMS_P2;Temp;Humidity;BMP_temperature;BMP_pressure;BME280_temperature;BME280_humidity;BME280_pressure;Samples;Min_cycle;Max_cycle;Signal;HPM_P1;HPM_P2
2023/01/16 00:00:07;;;;;;;0.40;0.40;;;5.80;99.90;;;5.70;83.40;99341.78;4991999;28;20199;-66
2023/01/16 00:02:34;;;;;;;0.40;0.40;;;5.80;99.90;;;5.65;83.89;99336.94;4991115;28;20708;-67
2023/01/16 00:05:01;;;;;;;0.73;0.40;;;5.70;99.90;;;5.64;83.73;99332.72;4992493;28;20210;-67
2023/01/16 00:07:28;;;;;;;0.45;0.38;;;5.70;99.90;;;5.64;83.64;99330.13;5007355;28;20202;-67
2023/01/16 00:09:54;;;;;;;0.20;0.20;;;5.70;99.90;;;5.59;84.05;99321.84;5001137;28;20229;-68
2023/01/16 00:12:21;;;;;;;0.40;0.40;;;5.70;99.90;;;5.57;84.32;99307.38;5011374;28;20230;-68
2023/01/16 00:14:48;;;;;;;0.30;0.30;;;5.70;99.90;;;5.57;83.98;99304.78;5010844;28;20195;-67
2023/01/16 00:17:15;;;;;;;0.45;0.45;;;5.70;99.90;;;5.53;84.30;99309.38;4960604;28;20604;-67
2023/01/16 00:19:42;;;;;;;1.67;0.32;;;5.60;99.90;;;5.58;83.47;99299.50;4991420;28;20231;-66
2023/01/16 00:22:09;;;;;;;0.20;0.20;;;5.70;99.90;;;5.61;83.56;99288.09;4992886;28;20221;-67
2023/01/16 00:24:36;;;;;;;0.75;0.68;;;5.70;99.90;;;5.59;83.44;99282.22;4991807;28;20209;-67
2023/01/16 00:27:03;;;;;;;0.40;0.40;;;5.70;99.90;;;5.54;83.65;99282.53;4992651;28;20301;-70
2023/01/16 00:29:30;;;;;;;0.20;0.20;;;5.70;99.90;;;5.47;83.68;99278.78;4992230;28;20279;-67
2023/01/16 00:31:56;;;;;;;0.55;0.55;;;5.60;99.90;;;5.44;84.14;99278.97;4992551;28;20234;-66
2023/01/16 00:34:23;;;;;;;0.32;0.30;;;5.50;99.90;;;5.45;84.26;99268.50;5000050;28;20214;-68
2023/01/16 00:36:50;;;;;;;0.35;0.35;;;5.50;99.90;;;5.46;84.08;99264.16;4993171;28;20246;-67
2023/01/16 00:39:17;;;;;;;0.60;0.60;;;5.60;99.90;;;5.46;83.95;99253.81;4990235;28;20254;-69
2023/01/16 00:41:44;;;;;;;0.25;0.25;;;5.60;99.90;;;5.48;84.06;99244.19;4991549;28;20226;-67
2023/01/16 00:44:11;;;;;;;0.50;0.50;;;5.60;99.90;;;5.44;84.01;99243.59;4998486;28;20206;-70
2023/01/16 00:46:37;;;;;;;1.30;0.50;;;5.60;99.90;;;5.38;83.85;99241.47;4990069;28;20199;-68
2023/01/16 00:49:04;;;;;;;0.30;0.30;;;5.50;99.90;;;5.38;83.92;99235.47;5002861;28;20630;-66
2023/01/16 00:51:31;;;;;;;0.30;0.30;;;5.50;99.90;;;5.31;84.27;99231.66;5002016;28;20773;-69
2023/01/16 00:53:58;;;;;;;0.85;0.50;;;5.40;99.90;;;5.30;84.46;99230.81;4990489;28;20242;-67
2023/01/16 00:56:25;;;;;;;0.70;0.70;;;5.40;99.90;;;5.28;83.95;99222.34;4990714;28;20250;-66
2023/01/16 00:58:52;;;;;;;0.45;0.45;;;5.40;99.90;;;5.28;84.14;99218.97;4991443;28;20203;-67
2023/01/16 01:01:19;;;;;;;0.47;0.47;;;5.40;99.90;;;5.26;83.74;99213.88;4990408;28;20199;-67
2023/01/16 01:03:46;;;;;;;0.85;0.47;;;5.40;99.90;;;5.24;84.43;99202.81;4987190;28;20223;-69
2023/01/16 01:06:13;;;;;;;0.93;0.35;;;5.40;99.90;;;5.24;84.01;99199.41;4991165;28;20207;-66
2023/01/16 01:08:40;;;;;;;0.32;0.32;;;5.30;99.90;;;5.25;84.06;99201.06;4993318;28;20219;-67
2023/01/16 01:11:13;;;;;;;0.60;0.60;;;5.30;99.90;;;5.20;84.12;99198.81;4997430;28;20413;-67
2023/01/16 01:13:41;;;;;;;1.02;0.60;;;5.30;99.90;;;5.15;84.27;99200.94;4991972;28;20254;-67
2023/01/16 01:16:10;;;;;;;0.65;0.60;;;5.30;99.90;;;5.15;84.49;99211.28;4990309;28;20266;-67
2023/01/16 01:18:38;;;;;;;3.35;0.77;;;5.20;99.90;;;5.11;84.55;99211.59;4977813;28;20203;-67
2023/01/16 01:21:05;;;;;;;1.10;0.50;;;5.20;99.90;;;5.08;84.47;99201.47;4991800;28;20195;-67
2023/01/16 01:23:33;;;;;;;0.30;0.30;;;5.20;99.90;;;5.10;84.22;99195.25;4998322;28;20203;-69
2023/01/16 01:26:10;;;;;;;0.30;0.30;;;5.20;99.90;;;5.08;84.60;99191.13;4994034;28;20249;-66
2023/01/16 01:28:38;;;;;;;0.40;0.40;;;5.20;99.90;;;5.05;84.51;99193.91;4973826;28;20266;-66
2023/01/16 01:31:11;;;;;;;0.20;0.20;;;5.20;99.90;;;5.01;84.67;99179.56;4994006;28;20211;-67
2023/01/16 01:33:39;;;;;;;0.30;0.30;;;5.10;99.90;;;4.99;84.80;99176.28;4994804;28;20237;-68
2023/01/16 01:36:07;;;;;;;0.32;0.30;;;5.10;99.90;;;4.96;85.02;99166.97;5001420;28;20234;-66
2023/01/16 01:38:34;;;;;;;0.30;0.30;;;5.10;99.90;;;4.99;85.16;99161.59;4998366;28;20192;-67
2023/01/16 01:41:01;;;;;;;0.38;0.30;;;5.10;99.90;;;4.97;85.09;99155.72;4992898;28;20683;-67
2023/01/16 01:43:44;;;;;;;0.40;0.40;;;5.10;99.90;;;4.97;84.66;99145.38;4994818;28;20216;-68
2023/01/16 01:46:34;;;;;;;0.30;0.30;;;5.10;99.90;;;4.94;85.46;99139.63;4994323;28;20203;-67
2023/01/16 01:49:27;;;;;;;0.50;0.50;;;5.10;99.90;;;4.98;85.03;99138.47;4993954;28;20207;-67
2023/01/16 01:51:59;;;;;;;0.30;0.30;;;5.10;99.90;;;4.97;85.14;99136.78;4990618;28;20230;-67
2023/01/16 01:54:36;;;;;;;0.88;0.35;;;5.10;99.90;;;5.00;85.38;99136.59;4972408;28;20208;-67
2023/01/16 01:57:33;;;;;;;0.40;0.40;;;5.10;99.90;;;5.00;84.77;99124.50;4991665;28;20217;-68
2023/01/16 02:00:21;;;;;;;0.73;0.30;;;5.10;99.90;;;5.02;84.58;99129.53;4970519;28;20203;-66
2023/01/16 02:03:03;;;;;;;0.30;0.30;;;5.20;99.90;;;5.01;84.16;99125.28;4989699;28;20606;-66
2023/01/16 02:05:38;;;;;;;1.75;0.40;;;5.20;99.90;;;5.03;84.13;99120.84;4994622;28;20812;-66
2023/01/16 02:08:06;;;;;;;0.30;0.30;;;5.20;99.90;;;5.05;84.11;99114.63;4996046;28;20202;-66
2023/01/16 02:11:07;;;;;;;0.30;0.30;;;5.20;99.90;;;5.11;83.70;99114.16;4998128;28;20199;-67
2023/01/16 02:13:36;;;;;;;0.30;0.30;;;5.20;99.90;;;5.19;83.38;99109.28;4983856;28;20222;-67
2023/01/16 02:22:25;;;;;;;0.30;0.30;;;5.30;99.90;;;5.29;82.27;99086.13;4949241;29;20221;-66
2023/01/16 02:25:36;;;;;;;0.63;0.40;;;5.40;99.90;;;5.30;82.07;99083.44;4952203;29;21442;-64
2023/01/16 02:28:22;;;;;;;0.40;0.40;;;5.40;99.90;;;5.32;81.88;99067.81;4985519;28;20203;-64
2023/01/16 02:31:06;;;;;;;0.20;0.20;;;5.40;99.90;;;5.34;81.08;99058.19;4994247;28;20218;-66
2023/01/16 02:34:10;;;;;;;0.50;0.50;;;5.40;99.90;;;5.38;81.08;99046.66;4990601;28;20203;-65
2023/01/16 02:37:03;;;;;;;0.40;0.40;;;5.50;99.90;;;5.34;81.12;99034.91;4995917;28;20233;-65
2023/01/16 02:40:22;;;;;;;0.20;0.20;;;5.50;99.90;;;5.35;81.24;99021.03;4977479;28;20604;-65
2023/01/16 02:43:05;;;;;;;0.43;0.43;;;5.50;99.90;;;5.34;80.96;99016.81;4991187;28;20245;-65
2023/01/16 02:45:34;;;;;;;1.60;0.50;;;5.40;99.90;;;5.31;80.74;99011.84;4975215;28;20199;-64
2023/01/16 02:48:27;;;;;;;0.35;0.35;;;5.40;99.90;;;5.31;80.72;98989.41;4991842;28;20238;-65
2023/01/16 02:50:59;;;;;;;0.30;0.30;;;5.40;99.90;;;5.33;80.75;98981.53;4959671;28;20258;-65
2023/01/16 02:53:36;;;;;;;0.30;0.30;;;5.40;99.90;;;5.33;80.90;98968.59;4960991;28;20219;-65
2023/01/16 02:56:11;;;;;;;0.50;0.50;;;5.50;99.90;;;5.40;80.21;98962.84;4992365;28;20253;-65
2023/01/16 02:58:47;;;;;;;0.50;0.50;;;5.50;99.90;;;5.34;79.79;98963.31;4991015;28;20211;-68
2023/01/16 03:01:18;;;;;;;0.30;0.30;;;5.50;99.90;;;5.36;79.97;98960.63;4975551;28;20207;-67
2023/01/16 03:03:54;;;;;;;0.50;0.50;;;5.50;99.90;;;5.33;80.21;98942.72;4990393;28;20200;-66
2023/01/16 03:06:43;;;;;;;1.08;0.38;;;5.40;99.90;;;5.33;79.79;98934.97;4984424;28;20214;-65
2023/01/16 03:09:42;;;;;;;0.50;0.50;;;5.40;99.90;;;5.28;79.82;98926.78;4978250;28;20204;-67
2023/01/16 03:12:29;;;;;;;0.75;0.55;;;5.40;99.90;;;5.32;79.63;98912.66;4986317;28;20227;-66
2023/01/16 03:15:23;;;;;;;1.63;0.40;;;5.40;99.90;;;5.27;79.58;98901.84;4991084;28;20631;-67
2023/01/16 03:18:16;;;;;;;0.50;0.50;;;5.40;99.90;;;5.29;79.52;98895.63;4975517;28;20278;-64
2023/01/16 03:20:57;;;;;;;0.60;0.50;;;5.40;99.90;;;5.28;79.64;98903.50;4989076;28;20659;-66
2023/01/16 03:23:52;;;;;;;2.42;0.50;;;5.40;99.90;;;5.32;79.27;98889.38;4994878;28;20261;-65
2023/01/16 03:26:27;;;;;;;0.30;0.30;;;5.40;99.90;;;5.34;78.72;98880.56;4953435;28;20199;-67
2023/01/16 03:29:13;;;;;;;0.40;0.40;;;5.40;99.90;;;5.27;78.99;98866.47;4980851;28;20251;-68
2023/01/16 03:32:12;;;;;;;0.55;0.50;;;5.40;99.90;;;5.22;79.13;98860.00;4995181;28;20708;-67
2023/01/16 03:34:45;;;;;;;1.90;0.43;;;5.30;99.90;;;5.18;79.52;98848.25;4988446;28;20289;-67
2023/01/16 03:37:27;;;;;;;0.28;0.28;;;5.30;99.90;;;5.17;79.43;98838.88;4978255;28;20234;-65
2023/01/16 03:40:03;;;;;;;0.20;0.20;;;5.20;99.90;;;5.16;79.89;98832.88;4990360;28;20261;-65
2023/01/16 03:42:35;;;;;;;0.60;0.40;;;5.30;99.90;;;5.11;79.43;98834.19;4973104;28;20233;-67
2023/01/16 03:45:19;;;;;;;0.30;0.30;;;5.20;99.90;;;5.08;80.07;98835.25;4991591;28;20191;-66
2023/01/16 03:48:00;;;;;;;0.30;0.30;;;5.20;99.90;;;5.07;79.91;98832.78;5003962;28;20199;-66
2023/01/16 03:50:28;;;;;;;0.20;0.20;;;5.20;99.90;;;5.05;80.19;98821.72;4972740;28;20208;-66
2023/01/16 03:53:06;;;;;;;0.30;0.30;;;5.10;99.90;;;5.02;80.24;98812.47;4974079;28;20227;-67
2023/01/16 03:55:50;;;;;;;0.40;0.40;;;5.10;99.90;;;4.98;80.16;98813.66;4981299;28;20683;-66
2023/01/16 03:58:38;;;;;;;3.92;0.38;;;5.10;99.90;;;5.00;80.59;98813.50;4974353;28;20215;-67
2023/01/16 04:01:23;;;;;;;0.30;0.30;;;5.10;99.90;;;4.97;80.69;98798.22;4975857;28;20226;-66
2023/01/16 04:04:23;;;;;;;0.40;0.30;;;5.10;99.90;;;5.01;80.47;98794.47;4990483;28;20675;-66
2023/01/16 04:07:24;;;;;;;4.78;0.30;;;5.10;99.90;;;5.03;80.39;98783.06;4965247;28;20215;-67
2023/01/16 04:09:58;;;;;;;0.30;0.30;;;5.10;99.90;;;5.00;80.73;98791.09;4971966;28;20217;-66
2023/01/16 04:12:44;;;;;;;0.40;0.40;;;5.10;99.90;;;5.00;80.31;98775.56;4985794;28;20733;-66
2023/01/16 04:15:11;;;;;;;0.30;0.30;;;5.10;99.90;;;5.05;80.41;98775.19;5001945;28;20654;-66
2023/01/16 04:17:39;;;;;;;0.40;0.35;;;5.20;99.90;;;5.08;80.65;98764.63;4974786;28;20227;-68
2023/01/16 04:20:08;;;;;;;0.65;0.50;;;5.10;99.90;;;5.06;80.72;98746.66;4989473;28;20265;-66
2023/01/16 04:22:35;;;;;;;0.75;0.75;;;5.20;99.90;;;5.12;80.69;98746.16;4992749;28;20740;-66
2023/01/16 04:25:07;;;;;;;0.70;0.60;;;5.20;99.90;;;5.09;80.38;98745.59;4974642;28;20200;-66
2023/01/16 04:27:34;;;;;;;0.20;0.20;;;5.20;99.90;;;5.12;80.37;98735.00;4992782;28;20214;-66
2023/01/16 04:30:05;;;;;;;0.90;0.50;;;5.20;99.90;;;5.10;80.30;98734.31;4990018;28;20211;-66
2023/01/16 04:32:32;;;;;;;0.20;0.20;;;5.20;99.90;;;5.11;80.46;98723.03;4992303;28;20263;-67
2023/01/16 04:34:59;;;;;;;0.20;0.20;;;5.20;99.90;;;5.10;80.77;98724.78;4997620;28;20215;-67
2023/01/16 04:37:26;;;;;;;0.43;0.43;;;5.20;99.90;;;5.09;80.47;98719.75;5007115;28;20226;-65
2023/01/16 04:39:53;;;;;;;0.50;0.43;;;5.20;99.90;;;5.07;80.82;98714.69;4999553;28;20221;-65
2023/01/16 04:42:20;;;;;;;0.30;0.30;;;5.20;99.90;;;5.04;81.15;98709.78;4990361;28;20760;-66
2023/01/16 04:44:46;;;;;;;1.50;0.68;;;5.20;99.90;;;5.06;80.79;98701.91;4988937;28;20238;-66
2023/01/16 04:47:13;;;;;;;0.30;0.30;;;5.10;99.90;;;5.05;80.74;98695.91;4988644;28;20195;-68
2023/01/16 04:49:40;;;;;;;3.22;1.20;;;5.20;99.90;;;5.04;80.64;98677.94;4989679;28;20201;-69
2023/01/16 04:52:08;;;;;;;0.30;0.30;;;5.10;99.90;;;5.00;81.02;98676.53;4991372;28;20308;-67
2023/01/16 04:54:35;;;;;;;2.83;0.43;;;5.10;99.90;;;4.95;80.94;98663.16;4989458;28;20758;-67
2023/01/16 04:57:02;;;;;;;0.20;0.20;;;5.10;99.90;;;4.94;81.49;98654.56;4992061;28;20754;-67
2023/01/16 04:59:29;;;;;;;0.30;0.30;;;5.10;99.90;;;4.97;81.03;98651.75;4988128;28;20242;-66
2023/01/16 05:01:56;;;;;;;0.40;0.40;;;5.10;99.90;;;4.97;81.10;98643.19;4991149;28;20739;-66
2023/01/16 05:04:23;;;;;;;0.30;0.30;;;5.10;99.90;;;5.01;81.17;98636.81;4982562;28;20295;-66
2023/01/16 05:06:50;;;;;;;0.30;0.30;;;5.10;99.90;;;4.97;80.84;98623.34;4989984;28;20298;-65
2023/01/16 05:09:17;;;;;;;0.52;0.52;;;5.10;99.90;;;4.90;81.08;98621.38;4999217;28;20196;-66
2023/01/16 05:11:44;;;;;;;0.30;0.30;;;5.00;99.90;;;4.91;80.97;98608.34;4990635;28;20231;-66
2023/01/16 05:14:11;;;;;;;0.88;0.32;;;5.00;99.90;;;4.97;80.96;98594.09;4992267;28;20232;-69
2023/01/16 05:16:41;;;;;;;0.73;0.73;;;5.00;99.90;;;4.94;80.85;98591.75;4997123;28;20211;-66
2023/01/16 05:19:10;;;;;;;0.30;0.30;;;5.00;99.90;;;4.94;80.79;98581.44;4999231;28;20191;-66
2023/01/16 05:21:37;;;;;;;0.28;0.28;;;5.00;99.90;;;4.92;80.61;98575.56;4989467;28;20289;-66
2023/01/16 05:24:05;;;;;;;0.22;0.22;;;5.00;99.90;;;4.96;80.80;98561.44;4974217;28;20203;-66
2023/01/16 05:26:32;;;;;;;0.20;0.20;;;5.10;99.90;;;4.96;80.60;98556.28;4990978;28;20203;-66
2023/01/16 05:28:59;;;;;;;1.15;0.63;;;5.10;99.90;;;4.95;80.81;98547.69;4972182;28;20458;-66
2023/01/16 05:31:26;;;;;;;0.30;0.30;;;5.10;99.90;;;4.92;80.69;98544.56;4989885;28;20227;-66
2023/01/16 05:33:53;;;;;;;0.30;0.30;;;5.00;99.90;;;4.95;80.87;98539.94;4989957;28;20200;-66
2023/01/16 05:36:20;;;;;;;0.50;0.50;;;5.10;99.90;;;4.93;80.92;98526.34;4989342;28;20210;-66
2023/01/16 05:38:46;;;;;;;0.30;0.30;;;5.00;99.90;;;5.02;80.40;98524.75;4999562;28;20219;-65
2023/01/16 05:41:14;;;;;;;0.40;0.40;;;5.10;99.90;;;5.02;80.26;98510.09;4992584;28;20240;-68
2023/01/16 05:43:40;;;;;;;0.30;0.30;;;5.10;99.90;;;5.06;80.36;98500.31;4988671;28;20680;-67
2023/01/16 05:46:07;;;;;;;0.20;0.20;;;5.10;99.90;;;5.08;79.83;98485.47;4991502;28;20195;-66
2023/01/16 05:48:36;;;;;;;0.40;0.40;;;5.20;99.90;;;5.10;80.18;98487.00;4989144;28;20215;-66
2023/01/16 05:51:04;;;;;;;0.20;0.20;;;5.20;99.90;;;5.07;79.96;98478.69;4987191;28;20211;-66
2023/01/16 05:53:31;;;;;;;0.43;0.30;;;5.20;99.90;;;5.11;79.84;98469.72;4991242;28;20211;-66
2023/01/16 05:55:59;;;;;;;0.30;0.30;;;5.20;99.90;;;5.16;79.70;98465.81;4979032;28;20213;-66
2023/01/16 05:58:25;;;;;;;0.30;0.30;;;5.30;99.90;;;5.17;79.90;98466.63;5004004;28;20727;-67
2023/01/16 06:00:52;;;;;;;1.13;0.40;;;5.30;99.90;;;5.23;79.78;98453.19;4990769;28;20231;-67
2023/01/16 06:03:20;;;;;;;0.50;0.50;;;5.30;99.90;;;5.26;79.74;98450.34;4990888;28;20215;-67
2023/01/16 06:05:47;;;;;;;0.30;0.30;;;5.40;99.90;;;5.30;79.62;98441.38;4990061;28;20321;-66
2023/01/16 06:08:14;;;;;;;0.47;0.47;;;5.40;99.90;;;5.37;79.82;98437.31;4983881;28;20210;-67
2023/01/16 06:10:41;;;;;;;0.40;0.40;;;5.50;99.90;;;5.45;79.47;98419.41;4995853;28;20239;-70
2023/01/16 06:13:09;;;;;;;0.50;0.30;;;5.60;99.90;;;5.56;79.55;98411.50;4990940;28;20230;-67
2023/01/16 06:15:36;;;;;;;0.40;0.30;;;5.60;99.90;;;5.63;78.59;98388.50;5012701;28;20238;-66
2023/01/16 06:18:03;;;;;;;0.40;0.40;;;5.70;99.90;;;5.69;78.32;98382.81;4989582;28;20608;-66
2023/01/16 06:20:30;;;;;;;0.50;0.50;;;5.80;99.90;;;5.72;78.21;98373.03;4992745;28;20202;-67
2023/01/16 06:22:57;;;;;;;0.30;0.30;;;5.80;99.90;;;5.78;77.88;98369.91;4993567;28;20219;-66
2023/01/16 06:25:23;;;;;;;0.30;0.30;;;5.90;99.90;;;5.83;76.85;98353.97;4991899;28;20597;-67
2023/01/16 06:27:51;;;;;;;1.70;0.30;;;5.90;99.90;;;5.84;76.57;98364.22;4993574;28;20227;-69
2023/01/16 06:30:18;;;;;;;0.30;0.30;;;6.00;99.90;;;5.83;77.06;98359.16;4973596;28;20223;-68
2023/01/16 06:32:49;;;;;;;0.45;0.38;;;6.00;99.90;;;5.83;76.74;98354.78;4993742;28;20231;-66
2023/01/16 06:35:17;;;;;;;0.50;0.40;;;6.00;99.90;;;5.90;76.37;98342.16;5001462;28;20254;-68
2023/01/16 06:37:44;;;;;;;0.47;0.47;;;6.00;99.90;;;5.91;76.47;98334.25;4979914;28;20218;-66
2023/01/16 06:40:11;;;;;;;0.30;0.30;;;6.00;99.90;;;5.93;75.75;98332.34;4975325;28;20568;-68
2023/01/16 06:42:38;;;;;;;0.40;0.40;;;6.00;99.90;;;5.89;76.35;98315.47;4991768;28;20227;-67
2023/01/16 06:45:06;;;;;;;0.30;0.30;;;6.00;99.90;;;5.92;76.06;98317.75;4992379;28;20200;-67
2023/01/16 06:47:33;;;;;;;0.30;0.30;;;6.00;99.90;;;5.99;75.47;98300.72;4996117;28;20199;-66
2023/01/16 06:50:00;;;;;;;0.40;0.40;;;6.10;99.90;;;6.12;73.86;98303.84;5000269;28;20202;-66
2023/01/16 06:52:27;;;;;;;0.30;0.30;;;6.20;99.90;;;6.19;73.92;98289.41;5003465;28;20653;-69
2023/01/16 06:54:54;;;;;;;1.50;0.50;;;6.30;99.90;;;6.31;73.71;98289.22;4999507;28;20203;-66
2023/01/16 06:57:20;;;;;;;0.40;0.40;;;6.40;99.90;;;6.38;72.93;98293.72;5009007;28;20226;-67
2023/01/16 06:59:50;;;;;;;0.20;0.20;;;6.40;99.90;;;6.42;72.72;98266.59;4997197;28;20204;-67
2023/01/16 07:02:16;;;;;;;0.30;0.30;;;6.50;99.90;;;6.45;73.08;98271.50;4993362;28;20219;-67
2023/01/16 07:04:44;;;;;;;1.20;0.40;;;6.50;99.90;;;6.48;72.15;98260.00;4988627;28;20642;-68
2023/01/16 07:07:11;;;;;;;1.30;0.50;;;6.60;99.90;;;6.48;71.85;98249.66;5004601;28;21216;-70
2023/01/16 07:09:38;;;;;;;0.63;0.50;;;6.60;99.90;;;6.46;72.50;98236.84;4991550;28;20210;-67
2023/01/16 07:12:05;;;;;;;0.30;0.30;;;6.50;99.90;;;6.42;72.33;98229.50;4992060;28;20233;-67
2023/01/16 07:22:48;;;;;;;1.58;0.50;;;6.50;99.90;;;6.49;71.95;98204.66;4993841;28;20219;-67
2023/01/16 07:25:21;;;;;;;0.30;0.30;;;6.60;99.90;;;6.54;70.58;98199.88;4990362;28;20203;-66
2023/01/16 07:27:49;;;;;;;0.25;0.25;;;6.60;99.90;;;6.60;70.99;98188.94;4974228;28;20636;-68
2023/01/16 07:30:19;;;;;;;1.95;0.40;;;6.70;99.90;;;6.67;70.69;98187.38;4989676;28;20199;-66
2023/01/16 07:32:46;;;;;;;0.53;0.40;;;6.80;99.90;;;6.73;70.34;98192.00;4991752;28;20223;-69
2023/01/16 07:35:14;;;;;;;1.83;0.80;;;6.80;99.90;;;6.78;69.88;98182.84;4992127;28;20692;-67
2023/01/16 07:37:42;;;;;;;0.40;0.40;;;6.90;99.90;;;6.79;69.75;98181.06;5001719;28;20215;-67
2023/01/16 07:40:10;;;;;;;2.17;0.70;;;6.90;99.90;;;6.77;70.07;98176.00;4992769;28;20278;-66
2023/01/16 07:42:37;;;;;;;0.32;0.32;;;6.90;99.90;;;6.76;71.17;98181.34;4990189;28;20662;-67
2023/01/16 07:45:04;;;;;;;0.30;0.30;;;6.80;99.90;;;6.69;71.18;98170.75;4976106;28;20203;-66
2023/01/16 07:47:34;;;;;;;0.40;0.40;;;6.80;99.90;;;6.54;71.24;98161.81;4991722;28;21198;-66
2023/01/16 07:50:01;;;;;;;0.82;0.50;;;6.70;99.90;;;6.44;72.14;98157.66;4990584;28;20210;-66
2023/01/16 07:52:28;;;;;;;1.95;0.82;;;6.60;99.90;;;6.40;72.52;98151.13;4979591;28;20286;-66
2023/01/16 07:54:55;;;;;;;0.30;0.30;;;6.50;99.90;;;6.42;71.84;98147.44;4986540;28;20218;-66
2023/01/16 07:57:22;;;;;;;0.30;0.30;;;6.50;99.90;;;6.44;72.26;98150.72;4976049;28;20222;-66
2023/01/16 07:59:49;;;;;;;0.30;0.30;;;6.50;99.90;;;6.48;71.93;98152.03;4975020;28;20619;-67
2023/01/16 08:02:16;;;;;;;0.30;0.30;;;6.60;99.90;;;6.47;71.49;98147.84;4985992;28;21300;-66
2023/01/16 08:04:43;;;;;;;0.47;0.40;;;6.60;99.90;;;6.49;71.47;98137.31;4988184;28;20206;-67
2023/01/16 08:07:09;;;;;;;0.63;0.52;;;6.60;99.90;;;6.47;71.95;98145.25;5002809;28;20221;-66
2023/01/16 08:09:36;;;;;;;0.20;0.20;;;6.60;99.90;;;6.53;70.86;98134.31;5010988;28;20190;-68
2023/01/16 08:12:04;;;;;;;2.80;0.60;;;6.60;99.90;;;6.55;69.42;98132.38;5001048;28;20242;-63
2023/01/16 08:14:31;;;;;;;0.40;0.40;;;6.70;99.90;;;6.61;69.41;98128.38;4993032;28;20217;-65
2023/01/16 08:16:58;;;;;;;0.85;0.60;;;6.70;99.90;;;6.61;68.43;98115.44;4991866;28;20207;-66
2023/01/16 08:19:25;;;;;;;0.30;0.30;;;6.80;99.90;;;6.71;68.88;98118.75;4991978;28;20227;-68
2023/01/16 08:21:51;;;;;;;0.40;0.40;;;6.80;99.90;;;6.76;68.38;98101.84;4986823;28;20270;-66
2023/01/16 08:24:18;;;;;;;0.60;0.45;;;6.80;99.90;;;6.80;67.99;98091.97;4989973;28;20622;-65
2023/01/16 08:26:45;;;;;;;0.40;0.40;;;6.90;99.90;;;6.79;68.77;98098.94;4991076;28;20269;-66
2023/01/16 08:29:12;;;;;;;0.40;0.40;;;6.90;99.90;;;6.70;67.59;98088.66;4988219;28;20642;-66
2023/01/16 08:31:39;;;;;;;0.65;0.30;;;6.90;99.90;;;6.70;68.16;98086.06;4987098;28;20226;-67
2023/01/16 08:34:06;;;;;;;0.40;0.40;;;6.80;99.90;;;6.56;68.55;98061.47;4991388;28;20687;-66
2023/01/16 08:36:33;;;;;;;0.30;0.30;;;6.70;99.90;;;6.54;68.70;98076.34;4990257;28;20207;-67
2023/01/16 08:39:00;;;;;;;0.73;0.50;;;6.70;99.90;;;6.52;69.79;98069.66;4998180;28;20664;-67
2023/01/16 08:52:40;;;;;;;0.30;0.30;;;6.30;99.90;;;6.00;74.33;98056.50;4990595;28;20227;-67
2023/01/16 08:55:07;;;;;;;0.50;0.35;;;6.10;99.90;;;5.98;74.46;98040.31;4990772;28;20262;-65
2023/01/16 08:57:35;;;;;;;0.30;0.30;;;6.10;99.90;;;6.04;74.83;98046.69;4989889;28;20200;-65
2023/01/16 09:00:05;;;;;;;0.75;0.40;;;6.20;99.90;;;5.98;76.78;98055.84;4988722;28;20214;-68
2023/01/16 09:02:35;;;;;;;0.40;0.32;;;6.10;99.90;;;5.96;76.77;98052.56;4988452;28;20222;-68
2023/01/16 09:05:04;;;;;;;0.95;0.35;;;6.10;99.90;;;5.91;78.24;98057.38;4990893;28;20200;-67
2023/01/16 09:07:31;;;;;;;0.40;0.40;;;6.00;99.90;;;5.90;78.24;98045.38;4988267;28;20209;-67
2023/01/16 09:09:58;;;;;;;0.28;0.28;;;6.00;99.90;;;5.87;80.31;98048.25;4989823;28;20576;-69
2023/01/16 09:15:10;;;;;;;0.40;0.40;;;5.90;99.90;;;5.73;82.33;98040.13;5004633;28;20253;-67
2023/01/16 09:17:36;;;;;;;0.30;0.30;;;5.80;99.90;;;5.70;82.66;98027.47;4993359;28;20198;-68
2023/01/16 09:20:04;;;;;;;0.50;0.40;;;5.80;99.90;;;5.66;82.58;98026.94;4989369;28;20199;-67
2023/01/16 09:22:32;;;;;;;0.47;0.40;;;5.80;99.90;;;5.70;82.64;98037.81;5005852;28;20250;-67
2023/01/16 09:24:59;;;;;;;0.30;0.30;;;5.80;99.90;;;5.77;83.04;98031.13;4969348;28;20206;-68
2023/01/16 09:27:26;;;;;;;3.10;0.32;;;5.90;99.90;;;5.75;83.32;98033.03;4990600;28;20233;-68
2023/01/16 09:29:53;;;;;;;0.30;0.20;;;5.80;99.90;;;5.78;83.22;98025.78;5005366;28;20199;-68
2023/01/16 09:32:20;;;;;;;0.30;0.30;;;5.90;99.90;;;5.76;83.55;98011.38;4992170;28;20219;-67
2023/01/16 09:34:47;;;;;;;0.25;0.25;;;5.90;99.90;;;5.78;83.47;98005.09;5005186;28;20206;-68
2023/01/16 09:37:14;;;;;;;0.30;0.30;;;5.90;99.90;;;5.79;83.34;97996.38;4998675;28;20237;-67
2023/01/16 09:39:41;;;;;;;0.30;0.30;;;5.90;99.90;;;5.87;82.88;97991.34;5003065;28;20649;-68
2023/01/16 09:45:13;;;;;;;0.50;0.50;;;6.00;99.90;;;5.89;83.09;97968.72;4995158;28;20207;-68
2023/01/16 09:47:44;;;;;;;0.30;0.30;;;6.00;99.90;;;5.90;83.09;97969.53;4993738;28;20199;-66
2023/01/16 09:50:16;;;;;;;2.25;0.40;;;6.00;99.90;;;5.92;82.58;97981.34;4994574;28;20265;-69
2023/01/16 09:58:37;;;;;;;2.00;1.90;;;6.30;99.90;;;6.25;79.51;97972.97;4979630;28;20227;-67
2023/01/16 10:01:27;;;;;;;2.35;1.13;;;6.40;99.90;;;6.26;79.88;97972.00;4994805;28;20205;-65
2023/01/16 10:04:15;;;;;;;1.00;1.00;;;6.40;99.90;;;6.28;80.83;97963.28;4995634;28;20251;-67
2023/01/16 10:07:29;;;;;;;0.50;0.50;;;6.30;99.90;;;6.25;80.24;97960.03;4987527;28;20226;-67
2023/01/16 10:10:12;;;;;;;0.30;0.30;;;6.30;99.90;;;6.27;80.17;97962.47;4994748;28;20258;-68
2023/01/16 10:12:39;;;;;;;0.20;0.20;;;6.30;99.90;;;6.32;80.04;97964.59;4983752;28;20715;-68
2023/01/16 10:16:15;;;;;;;0.30;0.30;;;6.40;99.90;;;6.36;81.08;97971.13;4996566;28;20219;-67
2023/01/16 10:18:52;;;;;;;0.20;0.20;;;6.40;99.90;;;6.38;80.98;97956.25;4923004;29;20243;-67
2023/01/16 10:21:59;;;;;;;0.30;0.30;;;6.50;99.90;;;6.31;81.30;97958.63;4931664;29;20429;-67
2023/01/16 10:24:53;;;;;;;0.38;0.35;;;6.40;99.90;;;6.29;82.24;97947.59;4953659;28;20202;-67
2023/01/16 10:27:46;;;;;;;0.60;0.60;;;6.40;99.90;;;6.17;83.38;97936.66;4977201;28;20297;-66
2023/01/16 10:30:20;;;;;;;0.50;0.50;;;6.30;99.90;;;6.13;83.37;97940.47;4974857;28;20214;-69
2023/01/16 10:33:14;;;;;;;0.35;0.35;;;6.20;99.90;;;6.14;81.60;97936.94;5008609;28;20722;-67
2023/01/16 10:35:46;;;;;;;0.50;0.50;;;6.20;99.90;;;6.15;82.77;97914.47;4956574;28;20207;-67
2023/01/16 10:38:45;;;;;;;0.43;0.43;;;6.30;99.90;;;6.20;82.16;97914.81;4966460;28;20227;-65
2023/01/16 10:50:28;;;;;;;0.40;0.40;;;6.40;99.90;;;6.30;81.31;97868.97;4998594;28;20696;-67
2023/01/16 10:53:05;;;;;;;2.78;0.55;;;6.40;99.90;;;6.38;81.66;97868.22;4955584;28;20333;-68
2023/01/16 10:55:37;;;;;;;0.50;0.40;;;6.50;99.90;;;6.45;80.54;97861.47;4976934;28;20208;-70
2023/01/16 10:58:32;;;;;;;0.50;0.50;;;6.50;99.90;;;6.56;80.69;97850.88;4995143;28;20202;-69
2023/01/16 11:01:14;;;;;;;0.35;0.35;;;6.60;99.90;;;6.62;80.56;97842.47;4994660;28;20211;-68
2023/01/16 11:03:48;;;;;;;0.60;0.60;;;6.70;99.90;;;6.62;79.95;97832.91;4975557;28;20226;-68
2023/01/16 11:06:20;;;;;;;0.50;0.40;;;6.70;99.90;;;6.65;81.16;97826.63;4992753;28;20202;-67
2023/01/16 11:08:56;;;;;;;0.50;0.50;;;6.70;99.90;;;6.68;81.15;97823.72;4989384;28;20633;-67
2023/01/16 11:20:08;;;;;;;0.40;0.40;;;6.70;99.90;;;6.65;81.18;97805.88;5006724;28;20668;-66
2023/01/16 11:22:39;;;;;;;0.50;0.50;;;6.70;99.90;;;6.66;80.47;97794.56;4995459;28;20719;-65
2023/01/16 11:25:17;;;;;;;0.30;0.30;;;6.80;99.90;;;6.64;80.65;97776.59;4990700;28;20206;-66
2023/01/16 11:27:50;;;;;;;1.27;0.50;;;6.80;99.90;;;6.66;80.36;97771.25;4961339;28;20200;-68
2023/01/16 11:30:29;;;;;;;0.45;0.45;;;6.80;99.90;;;6.64;81.33;97755.06;4968871;28;20626;-66
2023/01/16 11:32:57;;;;;;;3.05;0.68;;;6.80;99.90;;;6.65;81.05;97754.06;4975957;28;20226;-66
2023/01/16 11:35:35;;;;;;;0.60;0.60;;;6.80;99.90;;;6.66;79.96;97741.00;4958942;28;20640;-66
2023/01/16 11:38:05;;;;;;;0.38;0.38;;;6.80;99.90;;;6.71;79.36;97738.72;4974281;28;20625;-67
2023/01/16 11:40:37;;;;;;;0.80;0.68;;;6.80;99.90;;;6.73;78.89;97717.88;5011638;28;20257;-67
2023/01/16 11:46:24;;;;;;;0.45;0.45;;;6.90;99.90;;;6.82;78.64;97709.94;4988739;28;20289;-66
2023/01/16 11:49:00;;;;;;;0.28;0.28;;;6.90;99.90;;;6.87;78.48;97704.28;4995279;28;20203;-68
2023/01/16 11:51:36;;;;;;;0.55;0.55;;;7.00;99.90;;;6.89;78.62;97692.81;4976006;28;20222;-67
2023/01/16 11:54:12;;;;;;;0.50;0.50;;;7.00;99.90;;;6.89;77.94;97668.66;4974907;28;20802;-67